Vue régionale

METAR et TAF

Vendredi 12 août 2022 à 17h15

Visibilités horizontales observées à différents aéroports. Les observations (METAR) et prévisions aéronautiques (TAF) complètes sont disponibles en cliquant sur l’icône correspondante.

  • Luxemburg (ELLX)

    Taf: TAF ELLX 121100Z 1212/1318 05010KT CAVOK PROB30 TEMPO 1212/1218 06015G25KT=

    Metar: METAR ELLX 121450Z 05009KT 030V090 CAVOK 30/05 Q1016 NOSIG=

  • Spangdahlem (ETAD)

    Taf: TAF ETAD 121200Z 1212/1318 08012G20KT 9999 SKC QNH3002INS WND 07010KT AFT 1217 BECMG 1309/1310 08010G15KT 9999 SKC QNH3000INS TX30/1215Z TN14/1302Z=

    Metar: METAR ETAD 121456Z AUTO 09014KT 9999 CLR 30/04 A3002 RMK AO2 SLP139 T02960042 57012 $=

  • Metz/Nancy (LFJL)

    Taf: TAF LFJL 121100Z 1212/1312 06012KT CAVOK PROB30 TEMPO 1300/1306 VRB04KT=

    Metar: METAR LFJL 121500Z AUTO 08013KT 040V130 CAVOK 30/05 Q1015 NOSIG=

  • Saarbrücken/Intl (EDDR)

    Taf: TAF EDDR 121100Z 1212/1312 08012KT CAVOK BECMG 1218/1220 08007KT BECMG 1307/1309 08012KT=

    Metar: METAR EDDR 121450Z AUTO 08009KT 040V140 CAVOK 29/06 Q1016 NOSIG=

  • Hahn (EDFH)

    Taf: TAF EDFH 121100Z 1212/1312 08012KT CAVOK BECMG 1218/1220 10007KT BECMG 1307/1309 10012KT=

    Metar: METAR EDFH 121450Z 09007KT 020V190 CAVOK 27/06 Q1018=

  • Ramstein (ETAR)

    Taf: TAF ETAR 121000Z 1210/1316 07009KT 9999 SKC QNH3002INS TEMPO 1210/1217 09010G20KT 510004 BECMG 1219/1220 VRB06KT 9999 SKC QNH3004INS BECMG 1307/1308 07009KT 9999 SKC QNH2997INS TEMPO 1310/1314 08010G20KT 510004 TX30/1215Z TN09/1304Z=

    Metar: METAR ETAR 121456Z AUTO 05012G20KT 9999 CLR 30/07 A3001 RMK AO2 SLP158 T02970070 56009 $=

  • Nancy/Ochey (LFSO)

    Taf: TAF LFSO 121400Z NIL=

    Metar: METAR LFSO 121500Z AUTO 06013KT 010V090 CAVOK 30/04 Q1015=

  • Liège Bierset (EBLG)

    Taf: TAF EBLG 121110Z 1212/1318 08010KT CAVOK=

    Metar: METAR EBLG 121450Z 08009KT 020V110 CAVOK 31/04 Q1016 NOSIG=

  • Saint-Dizier (LFSI)

    Taf: TAF LFSI 121400Z 1215/1315 09012KT CAVOK=

    Metar: METAR LFSI 121500Z AUTO 06014KT 030V090 CAVOK 32/04 Q1014=

  • Maastricht/Zuid Limburg (EHBK)

    Taf: TAF COR EHBK 121102Z 1212/1318 10010KT CAVOK=

    Metar: METAR EHBK 121455Z AUTO 07009KT 020V110 9999 NCD 32/04 Q1016 NOSIG=

  • Köln/Köln-Bonn (EDDK)

    Taf: TAF EDDK 121100Z 1212/1318 11006KT CAVOK=

    Metar: METAR EDDK 121450Z AUTO VRB04KT CAVOK 32/06 Q1017 NOSIG=

  • Charleroi (EBCI)

    Taf: TAF EBCI 121110Z 1212/1318 07012KT CAVOK=

    Metar: METAR EBCI 121450Z 06009KT 020V100 CAVOK 31/06 Q1016 NOSIG=

  • Wiesbaden (ETOU)

    Taf: TAF ETOU 121200Z 1212/1318 07009KT 9999 SKC QNH3005INS BECMG 1215/1216 08012KT 9999 SCT090 QNH3004INS BECMG 1221/1222 VRB06KT 9999 SKC QNH2998INS TX30/1214Z TN18/1304Z=

    Metar: METAR ETOU 121456Z AUTO 08009KT 9999 CLR 31/06 A3002 RMK AO2 SLP161 T03070058 57013 $=

  • Karlsruhe/Baden-Baden (EDSB)

    Taf: TAF EDSB 121100Z 1212/1312 07014KT CAVOK PROB30 TEMPO 1212/1216 06015G25KT BECMG 1217/1219 07007KT BECMG 1220/1222 01005KT BECMG 1307/1309 07012KT=

    Metar: METAR EDSB 121450Z 03013KT 360V070 CAVOK 31/07 Q1015=

  • Chalons/Vatry (LFOK)

    Taf: TAF LFOK 121100Z 1212/1312 08015KT CAVOK BECMG 1218/1221 08005KT BECMG 1309/1312 09015KT=

    Metar: METAR LFOK 121500Z AUTO 05011KT CAVOK 31/09 Q1014 NOSIG=

  • Frankfurt/Main (EDDF)

    Taf: TAF EDDF 121100Z 1212/1318 09013KT CAVOK BECMG 1218/1220 07006KT BECMG 1311/1313 08012KT=

    Metar: METAR EDDF 121450Z 09009KT 060V120 CAVOK 31/06 Q1016 TEMPO 08014KT=

  • Brüssel (EBBR)

    Taf: TAF EBBR 121110Z 1212/1318 08010KT CAVOK=

    Metar: METAR EBBR 121450Z 07008KT 040V110 CAVOK 31/04 Q1016 NOSIG=

  • Düsseldorf (EDDL)

    Taf: TAF EDDL 121100Z 1212/1318 08009KT CAVOK BECMG 1219/1222 08004KT BECMG 1306/1309 14008KT BECMG 1310/1313 08008KT=

    Metar: METAR EDDL 121450Z AUTO 04013KT CAVOK 32/06 Q1016 NOSIG=

  • Luxeuil (LFSX)

    Taf: TAF LFSX 121400Z NIL=

    Metar: METAR LFSX 121500Z AUTO 17009KT 120V200 CAVOK 32/07 Q1013=

  • Eindhoven (EHEH)

    Taf: TAF EHEH 121136Z 1212/1318 09010KT CAVOK TEMPO 1309/1317 13010KT=

    Metar: METAR EHEH 121455Z AUTO 07009KT 060V140 9999 NCD 32/08 Q1016 BLU NOSIG=

  • Niederrhein (EDLV)

    Taf: TAF EDLV 121100Z 1212/1312 09005KT CAVOK=

    Metar: METAR EDLV 121450Z VRB06KT CAVOK 31/07 Q1017=

  • Dortmund/Wickede (EDLW)

    Taf: TAF EDLW 121100Z 1212/1312 07007KT CAVOK BECMG 1221/1224 13005KT BECMG 1306/1309 07006KT=

    Metar: METAR EDLW 121450Z 07012KT CAVOK 30/06 Q1017=

  • Stuttgart/Echterdingen (EDDS)

    Taf: TAF EDDS 121100Z 1212/1312 07012KT CAVOK BECMG 1218/1220 09007KT BECMG 1308/1310 08013KT=

    Metar: METAR EDDS 121450Z AUTO 08010KT 060V120 CAVOK 26/06 Q1017 NOSIG=

  • Basel-Mühlhausen (LFSB)

    Taf: TAF LFSB 121100Z 1212/1312 11008KT CAVOK BECMG 1306/1308 36005KT=

    Metar: METAR LFSB 121500Z 07006KT 330V120 CAVOK 31/07 Q1014 NOSIG=

  • Lille (LFQQ)

    Taf: TAF LFQQ 121100Z 1212/1318 07011KT CAVOK BECMG 1308/1312 13010KT BECMG 1316/1318 06008KT=

    Metar: METAR LFQQ 121500Z AUTO 04011KT 020V090 CAVOK 33/07 Q1015 NOSIG=

  • Paris/Charles de Gaulle (LFPG)

    Taf: TAF LFPG 121100Z 1212/1318 08010KT CAVOK TX35/1216Z TN20/1305Z=

    Metar: METAR LFPG 121500Z 10011KT 020V130 CAVOK 33/07 Q1014 NOSIG=

  • Paderborn/Lippstadt (EDLP)

    Taf: TAF EDLP 121100Z 1212/1312 09009KT CAVOK BECMG 1218/1221 15005KT BECMG 1306/1309 09008KT=

    Metar: METAR EDLP 121450Z 09008KT 050V140 CAVOK 30/05 Q1019=

  • Paris/Le Bourget (LFPB)

    Taf: TAF LFPB 121100Z 1212/1312 08010KT CAVOK=

    Metar: METAR LFPB 121500Z AUTO 10011KT 060V130 CAVOK 34/05 Q1013 NOSIG=

  • Rotterdam (EHRD)

    Taf: TAF EHRD 121043Z 1212/1318 08007KT CAVOK BECMG 1308/1311 11010KT BECMG 1316/1318 08007KT=

    Metar: METAR EHRD 121455Z AUTO 09007KT 030V150 9999 NCD 31/12 Q1017 NOSIG=

  • Zürich/Kloten (LSZH)

    Taf: TAF LSZH 121425Z 1215/1321 06010KT CAVOK TX28/1215Z TN12/1304Z TX29/1315Z BECMG 1219/1222 VRB02KT BECMG 1307/1310 05009KT BECMG 1318/1321 VRB02KT=

    Metar: METAR LSZH 121450Z 06010KT 030V110 CAVOK 27/06 Q1016 NOSIG=

  • Oostende/Intl (EBOS)

    Taf: TAF EBOS 121110Z 1212/1318 02014KT CAVOK BECMG 1221/1223 09006KT BECMG 1311/1313 02012KT=

    Metar: METAR EBOS 121450Z 03015KT CAVOK 27/14 Q1016 NOSIG=

  • Paris/Orly (LFPO)

    Taf: TAF LFPO 121100Z 1212/1318 09010KT CAVOK TEMPO 1212/1217 09012G22KT=

    Metar: METAR LFPO 121500Z 12010KT 090V150 CAVOK 34/08 Q1013=

  • Beauvais (LFOB)

    Taf: TAF LFOB 121100Z 1212/1312 09012KT CAVOK BECMG 1217/1220 03007KT BECMG 1308/1311 13010KT=

    Metar: METAR LFOB 121500Z AUTO 07009KT 030V110 CAVOK 34/07 Q1014 NOSIG=

  • Münster/Intl (EDDG)

    Taf: TAF EDDG 121100Z 1212/1312 08007KT CAVOK BECMG 1218/1221 VRB03KT BECMG 1307/1310 10007KT=

    Metar: METAR EDDG 121450Z AUTO 03007KT 320V130 CAVOK 31/07 Q1018 NOSIG=

  • Illesheim (ETIK)

    Taf: TAF ETIK 121400Z 1214/1320 08010G15KT 9999 SCT080 QNH3005INS BECMG 1217/1218 08009KT 9999 FEW050 SCT070 QNH3009INS BECMG 1308/1309 07012KT 9999 SKC QNH3007INS BECMG 1317/1318 07009KT 9999 BKN055 QNH3002INS TX27/1215Z TN13/1304Z=

    Metar: METAR ETIK 121456Z 09007G16KT 9999 FEW085 27/06 A3004 RMK AO2A SLP165 T02680062 57010 $=

  • Duebendorf (LSMD)

    Taf: TAF LSMD 120925Z 1210/1316 03008KT CAVOK PROB40 TEMPO 1211/1217 06014G25KT BECMG 1219/1222 VRB02KT BECMG 1307/1310 05007KT=

    Metar: METAR LSMD 121450Z 05011G21KT 340V100 CAVOK 27/07 Q1016 RMK BLU=

  • Villacoublay (LFPV)

    Taf: TAF LFPV 121400Z 1215/1315 10010KT CAVOK TX34/1216Z TN23/1305Z=

    Metar: METAR LFPV 121500Z AUTO 07011KT 030V100 CAVOK 32/07 Q1014 NOSIG=

  • Payerne (LSMP)

    Taf: TAF LSMP 120925Z 1210/1316 04007KT CAVOK=

    Metar: METAR LSMP 121450Z AUTO 06010KT 030V090 9999NDV NCD 30/05 Q1014 RMK=

  • Amsterdam/Schipol (EHAM)

    Taf: TAF EHAM 121043Z 1212/1318 08008KT CAVOK BECMG 1214/1217 05010KT BECMG 1221/1224 08005KT BECMG 1309/1312 12010KT BECMG 1316/1318 05005KT=

    Metar: METAR EHAM 121455Z 05010KT 360V090 CAVOK 31/11 Q1017 NOSIG=

  • Emmen (LSME)

    Taf: TAF LSME 120925Z 1210/1316 VRB02KT CAVOK BECMG 1210/1212 06010KT BECMG 1219/1222 VRB02KT=

    Metar: METAR LSME 121450Z AUTO 05005KT 010V070 9999NDV NCD 28/06 Q1015 RMK=

  • Friedrichshafen (EDNY)

    Taf: TAF EDNY 121100Z 1212/1312 05013KT CAVOK TEMPO 1212/1215 06015G25KT BECMG 1214/1216 03008KT=

    Metar: METAR EDNY 121450Z 05012KT 020V080 CAVOK 26/09 Q1016=

  • Alpnach (LSMA)

    Taf: TAF LSMA 120925Z 1210/1316 04010KT CAVOK BECMG 1219/1222 VRB02KT=

    Metar: METAR LSMA 121450Z 04010KT 320V110 CAVOK 27/08 Q1015 RMK BLU=

  • Meiringen (LSMM)

    Taf: TAF LSMM 120925Z 1210/1316 04010KT CAVOK TEMPO 1212/1219 08015G25KT BECMG 1219/1222 VRB02KT PROB40 TEMPO 1310/1316 04010KT=

    Metar: METAR LSMM 121450Z AUTO 05010G21KT 340V110 9999NDV FEW068 26/11 Q1015 RMK=

  • Nürnberg (EDDN)

    Taf: TAF EDDN 121100Z 1212/1312 08010KT CAVOK BECMG 1218/1220 VRB03KT BECMG 1307/1309 05007KT=

    Metar: METAR EDDN 121450Z AUTO 07012KT 360V100 CAVOK 27/07 Q1018 NOSIG=

  • Rouen (LFOP)

    Taf: TAF LFOP 121100Z 1212/1312 08011KT CAVOK TEMPO 1218/1221 01010KT BECMG 1308/1311 14010KT=

    Metar: METAR LFOP 121500Z AUTO 10007KT 040V160 CAVOK 33/05 Q1014 NOSIG=

  • Evreux (LFOE)

    Taf: TAF LFOE 121400Z 1215/1315 09009KT CAVOK=

    Metar: METAR LFOE 121500Z AUTO 09008KT 050V130 CAVOK 34/05 Q1014 NOSIG=

  • Erfurt/Bindersleben (EDDE)

    Taf: TAF EDDE 121100Z 1212/1312 09012KT CAVOK PROB30 TEMPO 1212/1214 07015G25KT BECMG 1218/1220 15004KT BECMG 1307/1309 06007KT=

    Metar: METAR EDDE 121450Z AUTO 07013KT 030V100 CAVOK 27/07 Q1019 NOSIG=